Terminal Aerodrome Forecast
Issued by NWS

Home | Current Version | Previous Version | Text Only | Print | Product List | Glossary On
Versions: 1 2 3 4 5 6 7 8 9 10 11 12 13 14 15
000
FTUS44 KLZK 011400 AAA
TAFHRO
TAF AMD
KHRO 011403Z 0114/0212 VRB06KT P6SM VCTS OVC050CB
     FM011700 19012G20KT P6SM SCT050 BKN250
     FM020000 16009KT P6SM SCT040 SCT100
     FM020300 16008KT P6SM VCTS SCT040CB BKN100=

USA.gov is the U.S. government's official web portal to all federal, state and local government web resources and services.